NCAR-RAP Real-Time Weather Data

Output produced by METARs form (06 May 2021  15:18 UTC)
found at http://weather.rap.ucar.edu/surface/
 
KSAC 061453Z 17005KT 10SM CLR 13/07 A2999 RMK AO2 SLP154 T01280072 53016
KSAC 061353Z 15004KT 10SM CLR 11/08 A2997 RMK AO2 SLP147 T01110078
KSAC 061253Z AUTO 16004KT 10SM CLR 11/08 A2995 RMK AO2 SLP140 T01060078
KSAC 061153Z AUTO 16003KT 10SM CLR 11/08 A2994 RMK AO2 SLP138 T01110078 10156 20111 53003
KSAC 061053Z AUTO VRB05KT 10SM CLR 11/08 A2994 RMK AO2 SLP136 T01110078
KSAC 060953Z AUTO 19005KT 10SM CLR 12/08 A2993 RMK AO2 SLP135 T01170078
KSAC 060853Z AUTO 18006KT 10SM CLR 12/08 A2993 RMK AO2 SLP135 T01170083 51009
KSAC 060753Z AUTO 19010KT 10SM CLR 12/08 A2993 RMK AO2 SLP135 T01220083 403390122
KSAC 060653Z AUTO 19007KT 10SM CLR 14/09 A2992 RMK AO2 SLP132 T01390089
KSAC 060553Z AUTO 21009KT 10SM CLR 16/09 A2991 RMK AO2 SLP127 T01560094 10339 20156 51025
KSAC 060453Z AUTO 22007KT 10SM CLR 18/09 A2989 RMK AO2 SLP119 T01780089
KSAC 060353Z 21009KT 10SM CLR 22/09 A2986 RMK AO2 SLP109 T02170094
KSAC 060253Z 22007KT 10SM CLR 27/08 A2983 RMK AO2 SLP101 T02670078 53005